Time;durP1;ratioP1;P1;durP2;ratioP2;P2;SDS_P1;SDS_P2;PMS_P1;PMS_P2;Temp;Humidity;BMP_temperature;BMP_pressure;BME280_temperature;BME280_humidity;BME280_pressure;Samples;Min_cycle;Max_cycle;Signal;HPM_P1;HPM_P2
2022/04/14 00:00:29;;;;;;;11.98;6.75;;;;;;;6.88;70.85;100871.44;4502552;31;20076;-68
2022/04/14 00:02:56;;;;;;;16.90;7.20;;;;;;;6.89;70.01;100881.03;4502577;31;20448;-68
2022/04/14 00:05:24;;;;;;;15.02;7.97;;;;;;;6.70;70.51;100872.09;4502433;31;20099;-68
2022/04/14 00:07:51;;;;;;;13.43;7.10;;;;;;;6.75;69.80;100870.44;4502500;31;20103;-68
2022/04/14 00:10:20;;;;;;;13.18;6.85;;;;;;;6.95;68.04;100875.88;4502503;31;20072;-68
2022/04/14 00:12:48;;;;;;;13.93;6.70;;;;;;;6.94;68.02;100872.38;4502468;31;20152;-68
2022/04/14 00:15:15;;;;;;;14.40;7.57;;;;;;;6.97;68.17;100878.53;4502326;31;20126;-68
2022/04/14 00:17:43;;;;;;;11.20;6.45;;;;;;;6.80;68.86;100873.09;4502600;31;20104;-68
2022/04/14 00:20:11;;;;;;;11.50;6.60;;;;;;;6.79;68.64;100864.37;4502349;31;20083;-68
2022/04/14 00:22:38;;;;;;;13.15;6.65;;;;;;;6.78;68.75;100869.56;4502520;31;20103;-68
2022/04/14 00:25:06;;;;;;;14.43;6.62;;;;;;;6.79;67.68;100866.97;4502226;31;20465;-68
2022/04/14 00:27:33;;;;;;;12.50;6.03;;;;;;;6.81;66.81;100872.22;4502371;31;20130;-68
2022/04/14 00:30:01;;;;;;;13.32;6.62;;;;;;;6.65;70.39;100871.19;4502577;31;20076;-68
2022/04/14 00:32:31;;;;;;;12.37;6.28;;;;;;;6.60;69.05;100870.22;4502372;31;20398;-68
2022/04/14 00:34:58;;;;;;;15.02;5.62;;;;;;;6.78;67.90;100862.59;4502276;31;20099;-68
2022/04/14 00:37:26;;;;;;;9.70;5.90;;;;;;;6.84;67.48;100869.66;4502158;31;20168;-68
2022/04/14 00:39:53;;;;;;;15.40;6.72;;;;;;;6.82;67.90;100873.97;4502301;31;20095;-69
2022/04/14 00:42:20;;;;;;;10.30;6.45;;;;;;;6.64;68.92;100878.16;4502180;31;20104;-69
2022/04/14 00:44:47;;;;;;;11.73;6.35;;;;;;;6.43;68.48;100877.87;4502115;31;20550;-69
2022/04/14 00:47:16;;;;;;;13.18;5.90;;;;;;;6.34;70.20;100870.78;4502240;31;20422;-69
2022/04/14 00:49:44;;;;;;;16.02;7.10;;;;;;;6.42;69.55;100869.12;4502234;31;20559;-69
2022/04/14 00:52:14;;;;;;;9.45;6.30;;;;;;;6.58;67.65;100856.25;4502086;31;20092;-69
2022/04/14 00:54:42;;;;;;;20.05;6.05;;;;;;;6.73;66.80;100859.03;4502393;31;20230;-69
2022/04/14 00:57:09;;;;;;;11.20;6.35;;;;;;;6.75;66.33;100852.09;4502111;31;20100;-69
2022/04/14 00:59:36;;;;;;;12.57;6.70;;;;;;;6.68;67.07;100858.13;4502375;31;20144;-69
2022/04/14 01:02:05;;;;;;;13.93;6.65;;;;;;;6.52;68.34;100862.28;4502403;31;20140;-69
2022/04/14 01:04:32;;;;;;;12.18;6.35;;;;;;;6.44;69.28;100861.31;4502391;31;20130;-69
2022/04/14 01:06:59;;;;;;;11.82;5.53;;;;;;;6.51;67.83;100859.66;4502099;31;20104;-69
2022/04/14 01:09:29;;;;;;;10.77;6.62;;;;;;;6.44;67.54;100863.94;4502163;31;20481;-69
2022/04/14 01:11:56;;;;;;;14.15;7.18;;;;;;;6.31;70.31;100864.63;4502168;31;20088;-69
2022/04/14 01:14:28;;;;;;;13.82;7.55;;;;;;;6.16;70.45;100868.81;4502112;31;20530;-69
2022/04/14 01:16:58;;;;;;;17.17;9.00;;;;;;;6.16;69.88;100862.69;4502302;31;20530;-69
2022/04/14 01:19:26;;;;;;;25.98;12.65;;;;;;;6.15;69.51;100864.44;4487255;31;20491;-69
2022/04/14 01:22:19;;;;;;;17.23;8.50;;;;;;;6.03;71.85;100871.22;4502154;31;20088;-69
2022/04/14 01:24:47;;;;;;;16.80;9.27;;;;;;;5.77;75.19;100857.75;4493497;31;20435;-69
2022/04/14 01:27:14;;;;;;;14.93;7.30;;;;;;;5.60;76.48;100867.94;4502163;31;20095;-69
2022/04/14 01:29:41;;;;;;;12.27;6.85;;;;;;;5.46;77.94;100860.72;4501958;31;20109;-69
2022/04/14 01:32:09;;;;;;;13.18;8.65;;;;;;;5.44;76.19;100857.22;4502033;31;20143;-69
2022/04/14 01:34:36;;;;;;;15.18;8.25;;;;;;;5.33;76.65;100855.28;4501856;31;20092;-69
2022/04/14 01:37:04;;;;;;;15.57;7.32;;;;;;;5.21;78.51;100864.66;4486332;31;20187;-69
2022/04/14 01:39:32;;;;;;;14.40;7.70;;;;;;;5.11;78.71;100864.47;4501889;31;20123;-69
2022/04/14 01:41:59;;;;;;;11.35;7.82;;;;;;;5.11;76.98;100864.47;4501809;31;20150;-69
2022/04/14 01:44:26;;;;;;;16.40;8.02;;;;;;;5.08;78.06;100870.53;4501933;31;20164;-69
2022/04/14 01:46:53;;;;;;;11.75;7.85;;;;;;;5.01;78.95;100879.97;4501681;31;20099;-69
2022/04/14 01:49:21;;;;;;;11.88;8.02;;;;;;;4.91;80.78;100878.06;4501930;31;20139;-69
2022/04/14 01:51:50;;;;;;;13.43;7.05;;;;;;;5.01;78.35;100879.97;4501986;31;20144;-69
2022/04/14 01:54:18;;;;;;;14.43;7.50;;;;;;;5.22;76.26;100878.59;4487037;31;20171;-69
2022/04/14 01:56:46;;;;;;;14.50;8.48;;;;;;;5.21;75.64;100871.63;4501729;31;20510;-69
2022/04/14 01:59:13;;;;;;;13.43;8.90;;;;;;;5.07;77.72;100879.22;4501568;31;20531;-69
2022/04/14 02:01:41;;;;;;;13.13;7.90;;;;;;;4.95;79.21;100874.66;4501653;31;20084;-69
2022/04/14 02:04:08;;;;;;;13.55;8.95;;;;;;;5.10;76.65;100876.66;4501588;31;20764;-69
2022/04/14 02:06:36;;;;;;;20.25;12.35;;;;;;;5.20;75.32;100869.88;4501675;31;20164;-69
2022/04/14 02:09:04;;;;;;;17.42;10.10;;;;;;;5.30;74.66;100874.41;4501596;31;20087;-69
2022/04/14 02:11:31;;;;;;;21.65;14.45;;;;;;;5.36;74.36;100868.41;4501475;31;20118;-69
2022/04/14 02:13:58;;;;;;;23.55;14.43;;;;;;;5.33;74.39;100866.59;4501475;31;20544;-69
2022/04/14 02:16:25;;;;;;;22.15;13.90;;;;;;;5.32;74.60;100875.31;4501775;31;20170;-69
2022/04/14 02:18:53;;;;;;;35.30;23.92;;;;;;;5.23;75.39;100865.59;4501337;31;20114;-69
2022/04/14 02:21:20;;;;;;;69.53;43.05;;;;;;;5.26;74.95;100870.87;4501455;31;20096;-69
2022/04/14 02:23:48;;;;;;;29.08;17.05;;;;;;;5.20;75.24;100870.75;4501148;31;20099;-69
2022/04/14 02:26:16;;;;;;;22.92;13.20;;;;;;;5.03;78.30;100861.72;4501546;31;20099;-69
2022/04/14 02:28:43;;;;;;;15.68;10.25;;;;;;;4.86;79.41;100866.63;4501487;31;20080;-69
2022/04/14 02:31:10;;;;;;;12.77;7.68;;;;;;;4.77;79.99;100874.28;4501358;31;20083;-69
2022/04/14 02:33:38;;;;;;;17.08;10.98;;;;;;;4.78;79.38;100878.66;4501131;31;20466;-69
2022/04/14 02:36:05;;;;;;;18.23;9.57;;;;;;;4.97;77.96;100879.88;4501257;31;20159;-69
2022/04/14 02:38:32;;;;;;;29.23;16.87;;;;;;;4.99;77.18;100881.69;4501249;31;20126;-69
2022/04/14 02:40:59;;;;;;;19.75;14.30;;;;;;;5.06;76.11;100887.03;4501398;31;20568;-69
2022/04/14 02:43:27;;;;;;;27.70;13.00;;;;;;;5.08;75.28;100880.97;4501296;31;20532;-69
2022/04/14 02:45:54;;;;;;;22.98;13.98;;;;;;;5.16;74.76;100882.00;4501320;31;20493;-69
2022/04/14 02:48:21;;;;;;;24.60;14.82;;;;;;;5.24;74.01;100880.41;4501064;31;20118;-69
2022/04/14 02:50:48;;;;;;;18.48;11.35;;;;;;;5.28;73.72;100873.50;4501390;31;20507;-69
2022/04/14 02:53:15;;;;;;;16.17;9.05;;;;;;;5.20;74.25;100873.38;4501229;31;20133;-69
2022/04/14 02:55:42;;;;;;;18.90;10.18;;;;;;;5.12;75.74;100874.94;4501251;31;20510;-69
2022/04/14 02:58:10;;;;;;;17.42;10.65;;;;;;;4.96;77.83;100876.41;4501096;31;20075;-69
2022/04/14 03:00:37;;;;;;;16.75;11.43;;;;;;;4.84;77.47;100876.19;4501118;31;20581;-69
2022/04/14 03:03:04;;;;;;;19.85;8.88;;;;;;;4.70;80.12;100881.13;4501127;31;20087;-69
2022/04/14 03:05:32;;;;;;;19.58;10.77;;;;;;;4.58;79.56;100875.66;4500919;31;20186;-69
2022/04/14 03:07:59;;;;;;;15.07;9.57;;;;;;;4.43;83.17;100868.41;4501046;31;20440;-69
2022/04/14 03:10:26;;;;;;;16.83;9.63;;;;;;;4.28;82.87;100871.56;4500861;31;20096;-69
2022/04/14 03:12:54;;;;;;;23.23;10.65;;;;;;;4.37;82.18;100875.22;4500736;31;20163;-69
2022/04/14 03:15:21;;;;;;;23.25;11.00;;;;;;;4.31;81.99;100871.63;4500847;31;20163;-69
2022/04/14 03:17:50;;;;;;;19.73;10.38;;;;;;;4.22;82.59;100875.78;4500953;31;20092;-69
2022/04/14 03:20:17;;;;;;;14.95;9.48;;;;;;;4.12;83.80;100876.41;4500716;31;20088;-69
2022/04/14 03:22:44;;;;;;;15.63;9.10;;;;;;;4.09;82.93;100877.22;4500792;31;20099;-69
2022/04/14 03:25:13;;;;;;;16.35;9.32;;;;;;;4.01;85.05;100876.16;4500777;31;20173;-69
2022/04/14 03:27:41;;;;;;;18.70;8.75;;;;;;;3.89;84.79;100873.25;4500701;31;20179;-69
2022/04/14 03:30:12;;;;;;;13.90;8.10;;;;;;;3.84;84.37;100870.56;4500482;31;20520;-69
2022/04/14 03:32:44;;;;;;;16.75;8.05;;;;;;;3.86;83.85;100871.50;4500519;31;20087;-69
2022/04/14 03:35:13;;;;;;;16.55;9.65;;;;;;;3.90;84.20;100877.66;4500632;31;20179;-69
2022/04/14 03:37:41;;;;;;;17.00;9.50;;;;;;;3.82;85.01;100874.88;4500247;31;20156;-69
2022/04/14 03:40:08;;;;;;;16.85;9.60;;;;;;;3.71;85.61;100886.75;4500515;31;20092;-69
2022/04/14 03:42:36;;;;;;;20.20;9.48;;;;;;;3.62;86.63;100883.94;4500498;31;20112;-69
2022/04/14 03:45:04;;;;;;;19.27;9.68;;;;;;;3.70;86.27;100885.88;4500308;31;20764;-69
2022/04/14 03:47:32;;;;;;;18.00;10.40;;;;;;;3.67;87.28;100888.41;4500369;31;20083;-69
2022/04/14 03:49:59;;;;;;;18.50;9.23;;;;;;;3.70;85.94;100891.09;4500309;31;20459;-69
2022/04/14 03:52:26;;;;;;;20.65;9.25;;;;;;;3.70;86.09;100887.59;4500267;31;20099;-69
2022/04/14 03:54:54;;;;;;;17.70;9.45;;;;;;;3.65;86.67;100892.72;4500452;31;20221;-69
2022/04/14 03:57:21;;;;;;;15.73;8.95;;;;;;;3.70;86.12;100892.81;4500191;31;20103;-69
2022/04/14 03:59:48;;;;;;;20.20;8.85;;;;;;;3.78;86.48;100897.38;4500393;31;20432;-69
2022/04/14 04:02:16;;;;;;;16.12;9.32;;;;;;;3.88;85.63;100900.19;4502259;31;20095;-69
2022/04/14 04:04:43;;;;;;;24.52;9.45;;;;;;;3.79;86.86;100895.66;4502463;31;20099;-69
2022/04/14 04:07:10;;;;;;;17.85;9.32;;;;;;;3.77;86.96;100898.22;4502667;31;20435;-71
2022/04/14 04:09:38;;;;;;;20.35;8.90;;;;;;;3.56;87.46;100900.28;4502366;31;20465;-72
2022/04/14 04:12:06;;;;;;;15.75;9.38;;;;;;;3.57;87.53;100902.09;4502431;31;20104;-72
2022/04/14 04:14:34;;;;;;;24.33;9.75;;;;;;;3.46;90.23;100898.31;4502347;31;20531;-72
2022/04/14 04:17:01;;;;;;;18.77;10.20;;;;;;;3.43;90.74;100909.53;4502418;31;20080;-72
2022/04/14 04:19:28;;;;;;;18.70;9.48;;;;;;;3.37;91.40;100906.78;4502391;31;20142;-72
2022/04/14 04:21:55;;;;;;;24.17;10.23;;;;;;;3.34;92.88;100914.50;4499917;31;78350;-72
2022/04/14 04:24:22;;;;;;;22.25;10.57;;;;;;;3.29;93.65;100906.59;4502227;31;20529;-72
2022/04/14 04:26:50;;;;;;;16.80;9.27;;;;;;;3.29;93.36;100910.91;4502184;31;20408;-72
2022/04/14 04:29:17;;;;;;;26.52;10.00;;;;;;;3.38;91.81;100911.13;4502426;31;20111;-72
2022/04/14 04:31:45;;;;;;;13.75;8.32;;;;;;;3.53;89.37;100906.34;4502232;31;20133;-72
2022/04/14 04:34:12;;;;;;;20.83;8.93;;;;;;;3.70;87.26;100905.84;4502191;31;20155;-72
2022/04/14 04:36:39;;;;;;;35.22;10.38;;;;;;;3.89;84.60;100896.72;4502393;31;20087;-72
2022/04/14 04:39:06;;;;;;;25.12;10.15;;;;;;;3.83;86.84;100908.78;4502102;31;20092;-72
2022/04/14 04:41:34;;;;;;;36.30;12.45;;;;;;;3.73;86.18;100914.63;4502229;31;20087;-72
2022/04/14 04:44:01;;;;;;;23.62;10.65;;;;;;;3.66;86.69;100917.94;4502304;31;20104;-72
2022/04/14 04:46:28;;;;;;;21.10;9.75;;;;;;;3.68;86.70;100924.06;4502335;31;20147;-72
2022/04/14 04:48:56;;;;;;;19.05;10.32;;;;;;;3.75;85.59;100918.16;4502104;31;20503;-72
2022/04/14 04:51:24;;;;;;;24.23;10.85;;;;;;;3.86;84.93;100920.16;4501919;31;20130;-72
2022/04/14 04:53:52;;;;;;;26.52;10.43;;;;;;;3.99;84.50;100924.78;4502101;31;20134;-72
2022/04/14 04:56:19;;;;;;;29.92;11.12;;;;;;;4.12;84.27;100929.44;4501993;31;20131;-72
2022/04/14 04:58:46;;;;;;;27.77;9.77;;;;;;;4.45;81.20;100926.72;4502109;31;20435;-72
2022/04/14 05:01:13;;;;;;;21.27;11.00;;;;;;;4.62;79.84;100929.66;4501960;31;20122;-72
2022/04/14 05:03:41;;;;;;;17.55;9.40;;;;;;;4.69;79.30;100931.56;4502040;31;20107;-72
2022/04/14 05:06:08;;;;;;;26.83;10.50;;;;;;;4.78;78.76;100934.38;4502020;31;20496;-72
2022/04/14 05:08:35;;;;;;;22.58;9.73;;;;;;;4.83;79.73;100931.84;4487064;31;20488;-72
2022/04/14 05:11:08;;;;;;;31.85;11.30;;;;;;;4.76;79.93;100936.06;4501981;31;20099;-72
2022/04/14 05:13:35;;;;;;;35.72;10.85;;;;;;;4.83;79.91;100938.81;4500936;31;20467;-72
2022/04/14 05:16:04;;;;;;;30.58;12.50;;;;;;;4.92;79.33;100934.66;4501883;31;20450;-72
2022/04/14 05:18:33;;;;;;;46.60;17.77;;;;;;;4.95;80.03;100928.63;4501823;31;20510;-72
2022/04/14 05:21:00;;;;;;;45.65;18.25;;;;;;;4.86;81.85;100942.34;4501856;31;20461;-72
2022/04/14 05:23:27;;;;;;;39.22;16.58;;;;;;;4.98;81.07;100941.72;4501851;31;20096;-72
2022/04/14 05:25:56;;;;;;;34.20;16.52;;;;;;;5.20;79.46;100936.06;4501755;31;20529;-72
2022/04/14 05:28:23;;;;;;;29.85;14.18;;;;;;;5.47;77.76;100940.88;4501817;31;20134;-72
2022/04/14 05:30:50;;;;;;;37.83;16.27;;;;;;;5.52;78.15;100946.22;4501691;31;20203;-72
2022/04/14 05:33:18;;;;;;;52.95;20.83;;;;;;;5.71;77.21;100948.28;4501817;31;20091;-72
2022/04/14 05:35:45;;;;;;;50.63;18.48;;;;;;;5.85;76.74;100945.03;4501694;31;20138;-72
2022/04/14 05:38:12;;;;;;;26.48;13.15;;;;;;;5.96;76.82;100940.88;4501658;31;20083;-71
2022/04/14 05:40:45;;;;;;;26.80;11.12;;;;;;;6.11;75.83;100946.38;4501650;31;20443;-72
2022/04/14 05:43:21;;;;;;;26.50;11.25;;;;;;;6.39;74.28;100954.59;4501727;31;20175;-71
2022/04/14 05:45:49;;;;;;;25.83;12.57;;;;;;;6.74;72.87;100944.59;4501731;31;20142;-72
2022/04/14 05:48:18;;;;;;;36.33;13.70;;;;;;;7.04;71.39;100951.09;4501622;31;20087;-71
2022/04/14 05:50:46;;;;;;;46.92;15.73;;;;;;;7.29;70.15;100947.88;4501624;31;20190;-72
2022/04/14 05:53:13;;;;;;;40.10;16.80;;;;;;;7.56;69.18;100946.38;4501663;31;20171;-71
2022/04/14 05:55:41;;;;;;;47.03;17.55;;;;;;;7.80;67.48;100945.72;4501883;31;20501;-69
2022/04/14 05:58:08;;;;;;;31.62;15.02;;;;;;;7.98;67.16;100945.84;4501428;31;20084;-69
2022/04/14 06:00:36;;;;;;;33.10;13.60;;;;;;;8.20;67.65;100953.88;4501521;31;20138;-69
2022/04/14 06:03:04;;;;;;;26.40;13.23;;;;;;;8.50;66.97;100943.62;4501599;31;20115;-69
2022/04/14 06:05:33;;;;;;;30.80;13.93;;;;;;;8.73;68.13;100940.25;4501367;31;20126;-69
2022/04/14 06:08:00;;;;;;;34.85;15.43;;;;;;;8.87;68.89;100943.81;4501482;31;20122;-69
2022/04/14 06:10:28;;;;;;;33.22;14.43;;;;;;;8.99;69.65;100937.72;4501539;31;20175;-69
2022/04/14 06:12:56;;;;;;;25.52;13.02;;;;;;;9.18;69.96;100934.25;4501536;31;20126;-69
2022/04/14 06:15:26;;;;;;;33.20;13.55;;;;;;;9.34;71.74;100943.94;4501393;31;20147;-69
2022/04/14 06:17:54;;;;;;;33.92;15.00;;;;;;;9.53;71.46;100938.72;4501659;31;20160;-69
2022/04/14 06:20:21;;;;;;;30.58;13.45;;;;;;;9.69;69.98;100950.16;4501374;31;20127;-69
2022/04/14 06:22:48;;;;;;;27.05;12.20;;;;;;;9.85;66.35;100943.13;4501172;31;20121;-69
2022/04/14 06:25:22;;;;;;;20.98;11.82;;;;;;;10.02;63.27;100950.13;4501310;31;20135;-69
2022/04/14 06:27:51;;;;;;;25.75;12.15;;;;;;;10.17;61.91;100945.72;4501435;31;20244;-69
2022/04/14 06:30:19;;;;;;;35.55;10.98;;;;;;;10.27;59.52;100940.47;4501253;31;20156;-69
2022/04/14 06:33:03;;;;;;;26.85;11.57;;;;;;;10.41;60.04;100940.44;4501241;31;20103;-69
2022/04/14 06:35:33;;;;;;;24.50;11.00;;;;;;;10.63;59.81;100943.91;4501323;31;20076;-69
2022/04/14 06:38:00;;;;;;;21.90;10.60;;;;;;;10.87;59.65;100942.06;4501175;31;20506;-69
2022/04/14 06:40:27;;;;;;;23.92;9.88;;;;;;;11.07;58.21;100936.72;4501313;31;20088;-69
2022/04/14 06:43:00;;;;;;;20.88;10.07;;;;;;;11.21;55.83;100942.78;4501444;31;20483;-69
2022/04/14 06:45:29;;;;;;;22.80;10.52;;;;;;;11.41;55.54;100948.84;4501179;31;20099;-69
2022/04/14 06:47:57;;;;;;;26.35;9.88;;;;;;;11.53;55.57;100944.34;4500923;31;20096;-69
2022/04/14 06:50:24;;;;;;;17.80;10.02;;;;;;;11.74;54.28;100938.91;4501298;31;20167;-68
2022/04/14 06:52:52;;;;;;;16.23;7.95;;;;;;;11.95;51.70;100951.97;4500948;31;20099;-67
2022/04/14 06:55:23;;;;;;;14.32;8.55;;;;;;;12.08;49.00;100954.50;4500818;31;20455;-67
2022/04/14 06:57:51;;;;;;;16.73;9.00;;;;;;;12.14;48.46;100951.81;4501052;31;20107;-67
2022/04/14 07:00:21;;;;;;;22.40;9.52;;;;;;;12.33;48.69;100961.31;4500797;31;20088;-67
2022/04/14 07:02:50;;;;;;;26.58;9.32;;;;;;;12.22;49.90;100952.59;4501094;31;20120;-68
2022/04/14 07:05:19;;;;;;;13.88;7.97;;;;;;;12.38;49.30;100956.84;4500935;31;20080;-67
2022/04/14 07:07:46;;;;;;;14.63;7.47;;;;;;;12.51;49.28;100949.69;4500699;31;20096;-67
2022/04/14 07:10:14;;;;;;;19.52;8.38;;;;;;;12.70;48.17;100950.34;4500834;31;20095;-67
2022/04/14 07:12:43;;;;;;;20.73;7.45;;;;;;;12.63;45.26;100946.91;4500781;31;20125;-67
2022/04/14 07:15:11;;;;;;;11.52;6.97;;;;;;;12.64;45.30;100947.75;4500780;31;20091;-68
2022/04/14 07:17:38;;;;;;;13.00;6.78;;;;;;;12.83;44.53;100949.31;4500674;31;20478;-67
2022/04/14 07:20:09;;;;;;;13.05;7.12;;;;;;;12.99;45.15;100952.63;4500541;31;20130;-68
2022/04/14 07:22:45;;;;;;;9.98;6.65;;;;;;;13.09;43.92;100940.16;4500452;31;20103;-67
2022/04/14 07:25:13;;;;;;;14.65;6.22;;;;;;;13.25;40.95;100944.41;4500653;31;20094;-68
2022/04/14 07:27:40;;;;;;;12.65;6.65;;;;;;;13.03;39.72;100942.88;4500630;31;20152;-67
2022/04/14 07:30:09;;;;;;;27.58;6.45;;;;;;;12.92;41.14;100946.53;4500463;31;20092;-68
2022/04/14 07:32:40;;;;;;;10.18;5.80;;;;;;;13.25;41.48;100936.47;4500432;31;20099;-68
2022/04/14 07:35:08;;;;;;;12.63;5.80;;;;;;;13.50;39.32;100933.44;4500582;31;20890;-68
2022/04/14 07:37:38;;;;;;;9.95;5.72;;;;;;;13.65;39.71;100943.81;4502671;31;20091;-68
2022/04/14 07:40:06;;;;;;;13.30;5.68;;;;;;;13.91;38.61;100950.44;4502438;31;20175;-68
2022/04/14 07:42:39;;;;;;;11.12;5.57;;;;;;;14.01;38.57;100946.75;4502796;31;20107;-68
2022/04/14 07:45:08;;;;;;;11.02;6.25;;;;;;;14.12;38.73;100944.78;4502525;31;20102;-68
2022/04/14 07:47:43;;;;;;;11.07;6.62;;;;;;;14.41;37.90;100951.34;4502552;31;20088;-68
2022/04/14 07:50:13;;;;;;;7.53;5.28;;;;;;;14.40;36.29;100958.41;4502713;31;20083;-68
2022/04/14 07:52:51;;;;;;;23.95;6.15;;;;;;;14.53;36.72;100951.16;4502581;31;20095;-68
2022/04/14 07:55:19;;;;;;;11.65;6.12;;;;;;;14.69;35.95;100947.28;4502438;31;20182;-68
2022/04/14 07:57:46;;;;;;;10.82;7.43;;;;;;;14.98;36.79;100945.81;4502389;31;20115;-68
2022/04/14 08:00:14;;;;;;;12.15;6.53;;;;;;;14.97;33.45;100952.03;4502357;31;20085;-68
2022/04/14 08:02:53;;;;;;;12.63;7.37;;;;;;;15.11;35.87;100941.13;4502394;31;20091;-68
2022/04/14 08:05:26;;;;;;;17.12;6.93;;;;;;;15.07;34.41;100946.50;4502403;31;20106;-68
2022/04/14 08:07:54;;;;;;;10.60;6.45;;;;;;;15.10;33.45;100942.91;4502286;31;20084;-68
2022/04/14 08:10:21;;;;;;;11.50;7.12;;;;;;;15.20;35.34;100951.56;4502224;31;20118;-68
2022/04/14 08:12:49;;;;;;;11.68;7.65;;;;;;;15.41;33.21;100959.03;4502341;31;20117;-68
2022/04/14 08:15:16;;;;;;;13.52;7.72;;;;;;;15.67;35.39;100955.81;4502235;31;20131;-68
2022/04/14 08:17:44;;;;;;;19.50;8.25;;;;;;;15.88;34.72;100949.09;4502532;31;20096;-68
2022/04/14 08:20:13;;;;;;;12.02;6.65;;;;;;;15.99;33.00;100947.03;4502125;31;20112;-68
2022/04/14 08:22:45;;;;;;;12.65;6.22;;;;;;;16.13;33.39;100948.47;4502179;31;20202;-68
2022/04/14 08:25:19;;;;;;;10.25;5.57;;;;;;;16.38;30.01;100962.87;4502500;31;20479;-68
2022/04/14 08:27:47;;;;;;;9.32;6.05;;;;;;;16.70;30.38;100959.31;4502308;31;20141;-68
2022/04/14 08:30:16;;;;;;;14.10;7.30;;;;;;;16.86;29.36;100948.31;4502376;31;20143;-68
2022/04/14 08:32:45;;;;;;;17.62;5.60;;;;;;;16.98;29.56;100950.59;4502166;31;20092;-68
2022/04/14 08:35:14;;;;;;;7.85;4.68;;;;;;;16.81;28.38;100945.75;4502206;31;20380;-68
2022/04/14 08:37:42;;;;;;;12.95;4.90;;;;;;;16.96;28.53;100936.44;4502001;31;20118;-68
2022/04/14 08:40:12;;;;;;;19.12;4.87;;;;;;;17.20;28.52;100941.03;4502185;31;20119;-68
2022/04/14 08:42:47;;;;;;;8.35;4.32;;;;;;;17.35;28.80;100939.72;4502068;31;20154;-68
2022/04/14 08:45:16;;;;;;;12.48;3.78;;;;;;;17.57;29.13;100933.72;4502116;31;20084;-68
2022/04/14 08:47:43;;;;;;;7.43;4.00;;;;;;;17.81;27.03;100932.94;4502133;31;20199;-68
2022/04/14 08:50:13;;;;;;;10.05;4.47;;;;;;;17.81;27.69;100940.03;4502010;31;20208;-68
2022/04/14 08:52:40;;;;;;;11.18;3.85;;;;;;;17.79;27.42;100939.25;4501940;31;20181;-68
2022/04/14 08:55:11;;;;;;;25.70;4.85;;;;;;;17.65;26.22;100939.66;4501986;31;20169;-68
2022/04/14 08:57:41;;;;;;;9.70;5.18;;;;;;;17.27;25.92;100938.19;4502035;31;20458;-68
2022/04/14 09:00:11;;;;;;;6.65;4.10;;;;;;;17.32;28.07;100931.81;4501884;31;20088;-68
2022/04/14 09:02:39;;;;;;;10.00;4.15;;;;;;;17.33;26.42;100936.22;4501983;31;20107;-68
2022/04/14 09:05:07;;;;;;;6.87;3.60;;;;;;;17.53;27.15;100932.94;4501995;31;20359;-68
2022/04/14 09:07:34;;;;;;;9.20;4.18;;;;;;;17.47;26.35;100930.47;4501821;31;20436;-68
2022/04/14 09:10:04;;;;;;;6.95;3.75;;;;;;;17.73;28.14;100928.75;4501845;31;20145;-68
2022/04/14 09:12:32;;;;;;;4.68;3.03;;;;;;;17.97;28.31;100932.44;4501873;31;20175;-68
2022/04/14 09:15:00;;;;;;;5.45;3.17;;;;;;;17.94;25.57;100928.06;4501864;31;20107;-68
2022/04/14 09:17:28;;;;;;;9.55;3.50;;;;;;;17.91;25.57;100937.06;4501708;31;20820;-68
2022/04/14 09:19:55;;;;;;;8.50;3.08;;;;;;;17.79;26.00;100931.25;4501838;31;20726;-68
2022/04/14 09:22:23;;;;;;;8.30;3.30;;;;;;;17.61;25.22;100936.22;4501749;31;20083;-68
2022/04/14 09:24:56;;;;;;;4.40;2.47;;;;;;;17.26;25.71;100928.47;4501729;31;20127;-68
2022/04/14 09:27:25;;;;;;;10.80;2.47;;;;;;;17.13;25.12;100935.94;4501867;31;20216;-68
2022/04/14 09:29:54;;;;;;;6.62;2.58;;;;;;;17.04;25.05;100929.13;4501852;31;20123;-68
2022/04/14 09:32:35;;;;;;;4.60;2.55;;;;;;;17.19;25.01;100927.78;4501810;31;20095;-68
2022/04/14 09:35:15;;;;;;;3.62;2.65;;;;;;;17.17;23.83;100930.50;4501908;31;20550;-68
2022/04/14 09:37:42;;;;;;;11.32;3.40;;;;;;;17.36;24.80;100936.13;4501848;31;20387;-68
2022/04/14 09:40:11;;;;;;;7.00;3.10;;;;;;;17.62;26.76;100937.09;4501779;31;20138;-68
2022/04/14 09:42:43;;;;;;;6.45;3.00;;;;;;;17.68;25.20;100936.91;4501835;31;20458;-68
2022/04/14 09:45:28;;;;;;;14.10;3.95;;;;;;;17.77;25.43;100933.94;4501932;31;20459;-68
2022/04/14 09:48:13;;;;;;;6.40;2.80;;;;;;;17.57;25.40;100925.72;4501795;31;20479;-68
2022/04/14 09:50:43;;;;;;;9.07;3.62;;;;;;;17.74;26.05;100922.47;4501482;31;20175;-68
2022/04/14 09:53:12;;;;;;;6.70;3.40;;;;;;;17.75;24.94;100918.91;4501797;31;20469;-68
2022/04/14 09:55:54;;;;;;;8.80;3.67;;;;;;;17.69;25.19;100922.63;4501694;31;20567;-68
2022/04/14 09:58:26;;;;;;;5.07;3.17;;;;;;;17.68;25.80;100916.44;4501053;31;20520;-68
2022/04/14 10:00:56;;;;;;;4.10;2.95;;;;;;;17.83;26.66;100917.75;4501708;31;20081;-68
2022/04/14 10:03:26;;;;;;;12.55;3.40;;;;;;;18.03;26.80;100916.22;4501677;31;20178;-68
2022/04/14 10:06:05;;;;;;;7.25;3.45;;;;;;;18.02;26.57;100918.03;4501292;31;20457;-68
2022/04/14 10:08:49;;;;;;;12.13;3.33;;;;;;;18.14;25.04;100912.25;4501600;31;20113;-68
2022/04/14 10:11:24;;;;;;;6.32;2.80;;;;;;;17.99;25.90;100910.12;4501806;31;20143;-68
2022/04/14 10:13:52;;;;;;;8.90;3.10;;;;;;;18.29;24.31;100897.50;4501842;31;20150;-68
2022/04/14 10:16:23;;;;;;;7.50;3.42;;;;;;;18.40;25.14;100900.66;4501484;31;20105;-68
2022/04/14 10:18:52;;;;;;;14.90;3.28;;;;;;;18.61;24.47;100901.66;4501479;31;20135;-68
2022/04/14 10:21:21;;;;;;;7.75;3.15;;;;;;;18.81;25.25;100895.63;4501449;31;20126;-68
2022/04/14 10:23:49;;;;;;;4.47;3.17;;;;;;;19.18;23.91;100890.66;4501564;31;20167;-68
2022/04/14 10:26:18;;;;;;;4.47;3.03;;;;;;;19.52;23.96;100892.84;4501352;31;20147;-68
2022/04/14 10:28:46;;;;;;;7.47;3.80;;;;;;;19.72;24.28;100886.72;4501233;31;20175;-68
2022/04/14 10:31:17;;;;;;;6.57;3.60;;;;;;;19.81;23.55;100892.53;4501192;31;20122;-68
2022/04/14 10:33:45;;;;;;;8.27;4.03;;;;;;;19.85;24.36;100885.25;4501619;31;20179;-68
2022/04/14 10:36:13;;;;;;;12.45;4.35;;;;;;;19.89;24.29;100886.00;4501243;31;20427;-68
2022/04/14 10:38:45;;;;;;;25.83;5.30;;;;;;;20.14;24.16;100875.09;4501570;31;20403;-68
2022/04/14 10:41:27;;;;;;;21.08;4.30;;;;;;;20.39;23.08;100891.84;4500986;31;20114;-68
2022/04/14 10:44:00;;;;;;;15.88;4.07;;;;;;;20.83;23.25;100878.25;4501402;31;20122;-68
2022/04/14 10:46:41;;;;;;;7.32;4.22;;;;;;;21.13;22.04;100877.75;4501201;31;20166;-68
2022/04/14 10:49:14;;;;;;;9.63;4.03;;;;;;;20.77;23.18;100873.19;4501250;31;20423;-68
2022/04/14 10:51:44;;;;;;;5.72;3.10;;;;;;;21.11;21.98;100875.16;4501361;31;20123;-68
2022/04/14 10:54:12;;;;;;;7.82;3.42;;;;;;;21.32;22.75;100867.87;4501087;31;20088;-68
2022/04/14 10:56:45;;;;;;;5.55;3.08;;;;;;;;;;4501291;31;20451;-68
2022/04/14 10:59:22;;;;;;;7.62;2.87;;;;;;;21.88;21.29;100869.56;4501128;31;20107;-68
2022/04/14 11:01:52;;;;;;;8.38;2.85;;;;;;;21.56;21.00;100868.53;4501266;31;20080;-68
2022/04/14 11:04:49;;;;;;;2.95;2.72;;;;;;;21.65;21.74;100865.38;4501113;31;20148;-68
2022/04/14 11:07:23;;;;;;;8.17;3.13;;;;;;;22.08;19.87;100871.22;4501041;31;20148;-68
2022/04/14 11:09:57;;;;;;;5.32;2.90;;;;;;;22.40;21.02;100866.91;4500885;31;20520;-68
2022/04/14 11:12:29;;;;;;;5.28;3.35;;;;;;;22.23;20.54;100877.66;4502915;31;20199;-68
2022/04/14 11:15:02;;;;;;;7.55;2.97;;;;;;;23.37;20.06;100865.09;4502937;31;20088;-68
2022/04/14 11:17:47;;;;;;;6.78;2.60;;;;;;;24.46;17.77;100865.88;4503007;31;20067;-68
2022/04/14 11:20:44;;;;;;;3.87;2.90;;;;;;;24.76;16.37;100852.28;4502795;31;20126;-68
2022/04/14 11:23:15;;;;;;;3.87;2.53;;;;;;;25.61;16.37;100847.66;4502649;31;20168;-68
2022/04/14 11:25:45;;;;;;;6.78;3.12;;;;;;;25.27;16.88;100845.38;4502858;31;20142;-68
2022/04/14 11:28:30;;;;;;;6.28;3.62;;;;;;;26.42;17.40;100845.62;4502789;31;20206;-68
2022/04/14 11:31:13;;;;;;;7.68;3.22;;;;;;;28.33;16.51;100843.16;4502689;31;20083;-68